sensor_id;sensor_type;location;lat;lon;timestamp;P1;durP1;ratioP1;P2;durP2;ratioP2
17727;SDS011;8984;49.268;12.302;2022-09-25T00:00:39;9.23;;;8.33;;
17727;SDS011;8984;49.268;12.302;2022-09-25T00:03:08;13.07;;;8.27;;
17727;SDS011;8984;49.268;12.302;2022-09-25T00:05:36;9.67;;;7.33;;
17727;SDS011;8984;49.268;12.302;2022-09-25T00:08:04;9.90;;;8.33;;
17727;SDS011;8984;49.268;12.302;2022-09-25T00:10:31;14.50;;;9.23;;
17727;SDS011;8984;49.268;12.302;2022-09-25T00:12:58;11.43;;;9.80;;
17727;SDS011;8984;49.268;12.302;2022-09-25T00:15:25;11.47;;;9.47;;
17727;SDS011;8984;49.268;12.302;2022-09-25T00:17:52;9.10;;;8.13;;
17727;SDS011;8984;49.268;12.302;2022-09-25T00:20:20;11.40;;;10.03;;
17727;SDS011;8984;49.268;12.302;2022-09-25T00:22:48;12.30;;;11.00;;
17727;SDS011;8984;49.268;12.302;2022-09-25T00:25:15;12.33;;;8.70;;
17727;SDS011;8984;49.268;12.302;2022-09-25T00:27:43;9.23;;;8.33;;
17727;SDS011;8984;49.268;12.302;2022-09-25T00:30:10;8.93;;;7.93;;
17727;SDS011;8984;49.268;12.302;2022-09-25T00:32:39;11.50;;;8.60;;
17727;SDS011;8984;49.268;12.302;2022-09-25T00:35:06;10.73;;;9.30;;
17727;SDS011;8984;49.268;12.302;2022-09-25T00:37:35;12.87;;;9.83;;
17727;SDS011;8984;49.268;12.302;2022-09-25T00:40:02;12.67;;;10.37;;
17727;SDS011;8984;49.268;12.302;2022-09-25T00:42:30;12.87;;;10.83;;
17727;SDS011;8984;49.268;12.302;2022-09-25T00:44:58;15.67;;;10.47;;
17727;SDS011;8984;49.268;12.302;2022-09-25T00:47:37;23.03;;;10.87;;
17727;SDS011;8984;49.268;12.302;2022-09-25T00:50:11;12.33;;;10.10;;
17727;SDS011;8984;49.268;12.302;2022-09-25T00:52:47;15.10;;;11.20;;
17727;SDS011;8984;49.268;12.302;2022-09-25T00:55:15;14.93;;;11.00;;
17727;SDS011;8984;49.268;12.302;2022-09-25T00:57:43;19.03;;;11.23;;
17727;SDS011;8984;49.268;12.302;2022-09-25T01:00:14;27.63;;;11.60;;
17727;SDS011;8984;49.268;12.302;2022-09-25T01:02:42;41.40;;;13.10;;
17727;SDS011;8984;49.268;12.302;2022-09-25T01:05:13;32.13;;;11.47;;
17727;SDS011;8984;49.268;12.302;2022-09-25T01:07:43;59.47;;;12.53;;
17727;SDS011;8984;49.268;12.302;2022-09-25T01:10:12;18.60;;;10.97;;
17727;SDS011;8984;49.268;12.302;2022-09-25T01:12:42;19.70;;;10.57;;
17727;SDS011;8984;49.268;12.302;2022-09-25T01:15:11;17.13;;;10.17;;
17727;SDS011;8984;49.268;12.302;2022-09-25T01:17:41;27.70;;;11.07;;
17727;SDS011;8984;49.268;12.302;2022-09-25T01:20:14;21.43;;;10.23;;
17727;SDS011;8984;49.268;12.302;2022-09-25T01:22:50;27.97;;;11.40;;
17727;SDS011;8984;49.268;12.302;2022-09-25T01:25:33;24.10;;;11.60;;
17727;SDS011;8984;49.268;12.302;2022-09-25T01:28:16;17.70;;;10.57;;
17727;SDS011;8984;49.268;12.302;2022-09-25T01:30:56;48.07;;;11.03;;
17727;SDS011;8984;49.268;12.302;2022-09-25T01:33:30;15.57;;;11.20;;
17727;SDS011;8984;49.268;12.302;2022-09-25T01:36:01;14.90;;;9.00;;
17727;SDS011;8984;49.268;12.302;2022-09-25T01:38:33;47.97;;;10.70;;
17727;SDS011;8984;49.268;12.302;2022-09-25T01:41:07;34.87;;;11.30;;
17727;SDS011;8984;49.268;12.302;2022-09-25T01:43:41;133.97;;;13.53;;
17727;SDS011;8984;49.268;12.302;2022-09-25T01:46:14;27.37;;;10.90;;
17727;SDS011;8984;49.268;12.302;2022-09-25T01:48:43;97.00;;;12.77;;
17727;SDS011;8984;49.268;12.302;2022-09-25T01:51:14;48.73;;;11.23;;
17727;SDS011;8984;49.268;12.302;2022-09-25T01:53:44;379.67;;;17.97;;
17727;SDS011;8984;49.268;12.302;2022-09-25T01:56:17;202.13;;;14.27;;
17727;SDS011;8984;49.268;12.302;2022-09-25T01:58:51;29.77;;;10.23;;
17727;SDS011;8984;49.268;12.302;2022-09-25T02:01:23;68.33;;;11.10;;
17727;SDS011;8984;49.268;12.302;2022-09-25T02:03:54;130.43;;;13.70;;
17727;SDS011;8984;49.268;12.302;2022-09-25T02:06:25;114.30;;;14.23;;
17727;SDS011;8984;49.268;12.302;2022-09-25T02:08:53;52.47;;;12.27;;
17727;SDS011;8984;49.268;12.302;2022-09-25T02:11:25;150.23;;;15.00;;
17727;SDS011;8984;49.268;12.302;2022-09-25T02:13:57;44.77;;;11.43;;
17727;SDS011;8984;49.268;12.302;2022-09-25T02:16:32;63.47;;;11.63;;
17727;SDS011;8984;49.268;12.302;2022-09-25T02:19:01;43.67;;;12.17;;
17727;SDS011;8984;49.268;12.302;2022-09-25T02:21:47;46.17;;;13.20;;
17727;SDS011;8984;49.268;12.302;2022-09-25T02:24:18;22.40;;;12.33;;
17727;SDS011;8984;49.268;12.302;2022-09-25T02:26:49;31.23;;;12.50;;
17727;SDS011;8984;49.268;12.302;2022-09-25T02:29:16;32.47;;;13.17;;
17727;SDS011;8984;49.268;12.302;2022-09-25T02:31:47;73.63;;;13.40;;
17727;SDS011;8984;49.268;12.302;2022-09-25T02:34:18;35.53;;;12.83;;
17727;SDS011;8984;49.268;12.302;2022-09-25T02:36:45;29.33;;;11.93;;
17727;SDS011;8984;49.268;12.302;2022-09-25T02:39:12;71.83;;;13.53;;
17727;SDS011;8984;49.268;12.302;2022-09-25T02:41:46;67.60;;;14.87;;
17727;SDS011;8984;49.268;12.302;2022-09-25T02:44:26;26.77;;;11.67;;
17727;SDS011;8984;49.268;12.302;2022-09-25T02:47:05;37.60;;;12.63;;
17727;SDS011;8984;49.268;12.302;2022-09-25T02:49:44;37.67;;;11.83;;
17727;SDS011;8984;49.268;12.302;2022-09-25T02:52:18;39.93;;;13.77;;
17727;SDS011;8984;49.268;12.302;2022-09-25T02:54:52;51.47;;;14.50;;
17727;SDS011;8984;49.268;12.302;2022-09-25T02:57:27;24.43;;;13.47;;
17727;SDS011;8984;49.268;12.302;2022-09-25T03:00:05;27.67;;;13.87;;
17727;SDS011;8984;49.268;12.302;2022-09-25T03:02:35;15.57;;;11.87;;
17727;SDS011;8984;49.268;12.302;2022-09-25T03:05:04;15.07;;;12.07;;
17727;SDS011;8984;49.268;12.302;2022-09-25T03:07:32;15.67;;;12.43;;
17727;SDS011;8984;49.268;12.302;2022-09-25T03:10:19;14.80;;;11.23;;
17727;SDS011;8984;49.268;12.302;2022-09-25T03:12:45;12.83;;;11.03;;
17727;SDS011;8984;49.268;12.302;2022-09-25T03:15:12;14.60;;;11.70;;
17727;SDS011;8984;49.268;12.302;2022-09-25T03:17:40;13.37;;;11.03;;
17727;SDS011;8984;49.268;12.302;2022-09-25T03:20:08;16.60;;;12.90;;
17727;SDS011;8984;49.268;12.302;2022-09-25T03:22:35;17.17;;;13.07;;
17727;SDS011;8984;49.268;12.302;2022-09-25T03:25:02;14.47;;;12.50;;
17727;SDS011;8984;49.268;12.302;2022-09-25T03:27:29;11.83;;;10.50;;
17727;SDS011;8984;49.268;12.302;2022-09-25T03:29:56;14.73;;;12.20;;
17727;SDS011;8984;49.268;12.302;2022-09-25T03:32:23;15.60;;;13.30;;
17727;SDS011;8984;49.268;12.302;2022-09-25T03:34:51;14.20;;;12.67;;
17727;SDS011;8984;49.268;12.302;2022-09-25T03:37:19;12.73;;;11.43;;
17727;SDS011;8984;49.268;12.302;2022-09-25T03:39:45;12.40;;;10.97;;
17727;SDS011;8984;49.268;12.302;2022-09-25T03:42:12;14.70;;;13.07;;
17727;SDS011;8984;49.268;12.302;2022-09-25T03:44:39;16.37;;;13.27;;
17727;SDS011;8984;49.268;12.302;2022-09-25T03:47:07;14.60;;;12.97;;
17727;SDS011;8984;49.268;12.302;2022-09-25T03:49:33;14.43;;;12.07;;
17727;SDS011;8984;49.268;12.302;2022-09-25T03:52:01;18.30;;;14.37;;
17727;SDS011;8984;49.268;12.302;2022-09-25T03:54:28;15.93;;;13.20;;
17727;SDS011;8984;49.268;12.302;2022-09-25T03:56:55;15.73;;;13.70;;
17727;SDS011;8984;49.268;12.302;2022-09-25T03:59:22;15.60;;;13.67;;
17727;SDS011;8984;49.268;12.302;2022-09-25T04:01:48;14.57;;;12.90;;
17727;SDS011;8984;49.268;12.302;2022-09-25T04:04:15;15.27;;;13.67;;
17727;SDS011;8984;49.268;12.302;2022-09-25T04:06:42;17.73;;;13.73;;
17727;SDS011;8984;49.268;12.302;2022-09-25T04:09:11;15.77;;;12.83;;
17727;SDS011;8984;49.268;12.302;2022-09-25T04:11:37;15.90;;;14.10;;
17727;SDS011;8984;49.268;12.302;2022-09-25T04:14:04;16.70;;;13.83;;
17727;SDS011;8984;49.268;12.302;2022-09-25T04:16:31;15.50;;;13.63;;
17727;SDS011;8984;49.268;12.302;2022-09-25T04:18:58;15.83;;;14.10;;
17727;SDS011;8984;49.268;12.302;2022-09-25T04:21:24;15.67;;;13.97;;
17727;SDS011;8984;49.268;12.302;2022-09-25T04:23:51;16.63;;;13.77;;
17727;SDS011;8984;49.268;12.302;2022-09-25T04:26:37;14.43;;;12.93;;
17727;SDS011;8984;49.268;12.302;2022-09-25T04:29:04;16.90;;;14.23;;
17727;SDS011;8984;49.268;12.302;2022-09-25T04:31:31;18.17;;;14.93;;
17727;SDS011;8984;49.268;12.302;2022-09-25T04:33:58;17.50;;;14.90;;
17727;SDS011;8984;49.268;12.302;2022-09-25T04:36:25;20.00;;;14.77;;
17727;SDS011;8984;49.268;12.302;2022-09-25T04:38:51;18.63;;;13.83;;
17727;SDS011;8984;49.268;12.302;2022-09-25T04:41:18;16.13;;;14.43;;
17727;SDS011;8984;49.268;12.302;2022-09-25T04:43:46;16.70;;;14.93;;
17727;SDS011;8984;49.268;12.302;2022-09-25T04:46:13;15.23;;;13.27;;
17727;SDS011;8984;49.268;12.302;2022-09-25T04:48:42;17.07;;;14.77;;
17727;SDS011;8984;49.268;12.302;2022-09-25T04:51:10;14.13;;;12.53;;
17727;SDS011;8984;49.268;12.302;2022-09-25T04:53:36;17.43;;;13.90;;
17727;SDS011;8984;49.268;12.302;2022-09-25T04:56:04;15.83;;;14.13;;
17727;SDS011;8984;49.268;12.302;2022-09-25T04:58:33;16.47;;;14.73;;
17727;SDS011;8984;49.268;12.302;2022-09-25T05:01:02;18.93;;;14.27;;
17727;SDS011;8984;49.268;12.302;2022-09-25T05:03:29;15.03;;;13.43;;
17727;SDS011;8984;49.268;12.302;2022-09-25T05:05:56;16.57;;;14.77;;
17727;SDS011;8984;49.268;12.302;2022-09-25T05:08:23;20.07;;;16.07;;
17727;SDS011;8984;49.268;12.302;2022-09-25T05:10:50;15.87;;;14.13;;
17727;SDS011;8984;49.268;12.302;2022-09-25T05:13:17;12.87;;;11.57;;
17727;SDS011;8984;49.268;12.302;2022-09-25T05:15:44;16.27;;;13.43;;
17727;SDS011;8984;49.268;12.302;2022-09-25T05:18:14;18.93;;;14.90;;
17727;SDS011;8984;49.268;12.302;2022-09-25T05:20:42;17.07;;;14.50;;
17727;SDS011;8984;49.268;12.302;2022-09-25T05:23:09;15.47;;;13.63;;
17727;SDS011;8984;49.268;12.302;2022-09-25T05:25:36;24.77;;;16.97;;
17727;SDS011;8984;49.268;12.302;2022-09-25T05:28:02;16.77;;;13.60;;
17727;SDS011;8984;49.268;12.302;2022-09-25T05:30:30;16.33;;;13.93;;
17727;SDS011;8984;49.268;12.302;2022-09-25T05:32:58;15.13;;;13.53;;
17727;SDS011;8984;49.268;12.302;2022-09-25T05:35:27;14.50;;;13.00;;
17727;SDS011;8984;49.268;12.302;2022-09-25T05:37:54;14.00;;;12.50;;
17727;SDS011;8984;49.268;12.302;2022-09-25T05:40:22;14.80;;;12.70;;
17727;SDS011;8984;49.268;12.302;2022-09-25T05:42:50;14.10;;;12.60;;
17727;SDS011;8984;49.268;12.302;2022-09-25T05:45:18;18.93;;;15.03;;
17727;SDS011;8984;49.268;12.302;2022-09-25T05:47:47;16.93;;;15.10;;
17727;SDS011;8984;49.268;12.302;2022-09-25T05:50:14;19.73;;;14.60;;
17727;SDS011;8984;49.268;12.302;2022-09-25T05:52:43;23.80;;;15.83;;
17727;SDS011;8984;49.268;12.302;2022-09-25T05:55:10;19.90;;;16.30;;
17727;SDS011;8984;49.268;12.302;2022-09-25T05:57:37;26.73;;;18.47;;
17727;SDS011;8984;49.268;12.302;2022-09-25T06:00:05;27.77;;;20.67;;
17727;SDS011;8984;49.268;12.302;2022-09-25T06:02:33;25.50;;;18.40;;
17727;SDS011;8984;49.268;12.302;2022-09-25T06:05:00;20.50;;;17.07;;
17727;SDS011;8984;49.268;12.302;2022-09-25T06:07:27;20.53;;;16.67;;
17727;SDS011;8984;49.268;12.302;2022-09-25T06:09:55;21.37;;;17.70;;
17727;SDS011;8984;49.268;12.302;2022-09-25T06:12:22;22.30;;;17.60;;
17727;SDS011;8984;49.268;12.302;2022-09-25T06:14:49;21.00;;;15.47;;
17727;SDS011;8984;49.268;12.302;2022-09-25T06:17:17;18.93;;;15.13;;
17727;SDS011;8984;49.268;12.302;2022-09-25T06:19:44;21.50;;;15.80;;
17727;SDS011;8984;49.268;12.302;2022-09-25T06:22:11;17.53;;;14.93;;
17727;SDS011;8984;49.268;12.302;2022-09-25T06:24:38;17.87;;;15.53;;
17727;SDS011;8984;49.268;12.302;2022-09-25T06:27:06;18.53;;;15.63;;
17727;SDS011;8984;49.268;12.302;2022-09-25T06:29:33;20.33;;;17.87;;
17727;SDS011;8984;49.268;12.302;2022-09-25T06:32:01;20.20;;;17.00;;
17727;SDS011;8984;49.268;12.302;2022-09-25T06:34:28;22.60;;;18.40;;
17727;SDS011;8984;49.268;12.302;2022-09-25T06:36:55;20.47;;;18.17;;
17727;SDS011;8984;49.268;12.302;2022-09-25T06:39:21;22.40;;;18.13;;
17727;SDS011;8984;49.268;12.302;2022-09-25T06:41:50;28.17;;;22.03;;
17727;SDS011;8984;49.268;12.302;2022-09-25T06:44:19;24.90;;;20.43;;
17727;SDS011;8984;49.268;12.302;2022-09-25T06:46:47;24.27;;;20.83;;
17727;SDS011;8984;49.268;12.302;2022-09-25T06:49:15;23.87;;;19.50;;
17727;SDS011;8984;49.268;12.302;2022-09-25T06:51:41;25.37;;;20.80;;
17727;SDS011;8984;49.268;12.302;2022-09-25T06:54:08;27.87;;;21.77;;
17727;SDS011;8984;49.268;12.302;2022-09-25T06:56:35;32.73;;;22.80;;
17727;SDS011;8984;49.268;12.302;2022-09-25T06:59:02;27.97;;;20.77;;
17727;SDS011;8984;49.268;12.302;2022-09-25T07:01:34;25.87;;;20.03;;
17727;SDS011;8984;49.268;12.302;2022-09-25T07:04:01;29.27;;;22.20;;
17727;SDS011;8984;49.268;12.302;2022-09-25T07:06:28;30.43;;;21.83;;
17727;SDS011;8984;49.268;12.302;2022-09-25T07:08:55;30.27;;;22.03;;
17727;SDS011;8984;49.268;12.302;2022-09-25T07:11:23;27.73;;;22.17;;
17727;SDS011;8984;49.268;12.302;2022-09-25T07:13:52;30.97;;;21.77;;
17727;SDS011;8984;49.268;12.302;2022-09-25T07:16:19;35.07;;;23.77;;
17727;SDS011;8984;49.268;12.302;2022-09-25T07:18:51;24.47;;;19.20;;
17727;SDS011;8984;49.268;12.302;2022-09-25T07:21:19;30.50;;;23.93;;
17727;SDS011;8984;49.268;12.302;2022-09-25T07:23:47;27.03;;;20.77;;
17727;SDS011;8984;49.268;12.302;2022-09-25T07:26:17;28.57;;;21.90;;
17727;SDS011;8984;49.268;12.302;2022-09-25T07:28:46;23.83;;;19.43;;
17727;SDS011;8984;49.268;12.302;2022-09-25T07:31:14;29.77;;;21.83;;
17727;SDS011;8984;49.268;12.302;2022-09-25T07:33:43;28.27;;;21.67;;
17727;SDS011;8984;49.268;12.302;2022-09-25T07:36:11;27.27;;;21.77;;
17727;SDS011;8984;49.268;12.302;2022-09-25T07:38:39;29.80;;;23.10;;
17727;SDS011;8984;49.268;12.302;2022-09-25T07:41:06;22.73;;;19.30;;
17727;SDS011;8984;49.268;12.302;2022-09-25T07:43:35;26.60;;;20.47;;
17727;SDS011;8984;49.268;12.302;2022-09-25T07:46:02;27.53;;;21.50;;
17727;SDS011;8984;49.268;12.302;2022-09-25T07:48:29;32.97;;;24.70;;
17727;SDS011;8984;49.268;12.302;2022-09-25T07:50:58;29.27;;;23.03;;
17727;SDS011;8984;49.268;12.302;2022-09-25T07:53:27;26.20;;;20.53;;
17727;SDS011;8984;49.268;12.302;2022-09-25T07:55:57;24.73;;;21.20;;
17727;SDS011;8984;49.268;12.302;2022-09-25T07:58:24;27.87;;;22.53;;
17727;SDS011;8984;49.268;12.302;2022-09-25T08:00:51;28.40;;;21.90;;
17727;SDS011;8984;49.268;12.302;2022-09-25T08:03:19;30.53;;;21.67;;
17727;SDS011;8984;49.268;12.302;2022-09-25T08:05:46;23.57;;;19.17;;
17727;SDS011;8984;49.268;12.302;2022-09-25T08:08:13;32.07;;;21.57;;
17727;SDS011;8984;49.268;12.302;2022-09-25T08:10:41;25.87;;;19.77;;
17727;SDS011;8984;49.268;12.302;2022-09-25T08:13:08;26.40;;;20.00;;
17727;SDS011;8984;49.268;12.302;2022-09-25T08:15:35;26.00;;;18.93;;
17727;SDS011;8984;49.268;12.302;2022-09-25T08:18:01;23.33;;;18.00;;
17727;SDS011;8984;49.268;12.302;2022-09-25T08:20:28;23.10;;;17.30;;
17727;SDS011;8984;49.268;12.302;2022-09-25T08:22:55;25.40;;;18.63;;
17727;SDS011;8984;49.268;12.302;2022-09-25T08:25:22;25.93;;;19.13;;
17727;SDS011;8984;49.268;12.302;2022-09-25T08:27:50;24.80;;;18.53;;
17727;SDS011;8984;49.268;12.302;2022-09-25T08:30:17;59.00;;;34.23;;
17727;SDS011;8984;49.268;12.302;2022-09-25T08:32:43;33.27;;;22.83;;
17727;SDS011;8984;49.268;12.302;2022-09-25T08:35:10;26.00;;;20.07;;
17727;SDS011;8984;49.268;12.302;2022-09-25T08:37:40;28.13;;;20.90;;
17727;SDS011;8984;49.268;12.302;2022-09-25T08:40:11;58.37;;;27.83;;
17727;SDS011;8984;49.268;12.302;2022-09-25T08:42:43;36.50;;;25.63;;
17727;SDS011;8984;49.268;12.302;2022-09-25T08:45:18;37.10;;;24.17;;
17727;SDS011;8984;49.268;12.302;2022-09-25T08:48:08;38.07;;;21.23;;
17727;SDS011;8984;49.268;12.302;2022-09-25T08:51:02;30.13;;;20.93;;
17727;SDS011;8984;49.268;12.302;2022-09-25T08:53:31;26.20;;;18.93;;
17727;SDS011;8984;49.268;12.302;2022-09-25T08:55:58;28.70;;;17.80;;
17727;SDS011;8984;49.268;12.302;2022-09-25T08:58:42;29.57;;;18.20;;
17727;SDS011;8984;49.268;12.302;2022-09-25T09:01:15;27.57;;;19.30;;
17727;SDS011;8984;49.268;12.302;2022-09-25T09:03:46;25.83;;;18.70;;
17727;SDS011;8984;49.268;12.302;2022-09-25T09:06:17;24.77;;;18.67;;
17727;SDS011;8984;49.268;12.302;2022-09-25T09:08:45;26.03;;;19.60;;
17727;SDS011;8984;49.268;12.302;2022-09-25T09:11:16;28.27;;;21.27;;
17727;SDS011;8984;49.268;12.302;2022-09-25T09:13:48;28.10;;;18.87;;
17727;SDS011;8984;49.268;12.302;2022-09-25T09:19:35;28.63;;;20.40;;
17727;SDS011;8984;49.268;12.302;2022-09-25T09:22:03;27.20;;;19.33;;
17727;SDS011;8984;49.268;12.302;2022-09-25T09:24:34;27.40;;;19.67;;
17727;SDS011;8984;49.268;12.302;2022-09-25T09:27:16;31.90;;;21.83;;
17727;SDS011;8984;49.268;12.302;2022-09-25T09:29:56;26.87;;;19.97;;
17727;SDS011;8984;49.268;12.302;2022-09-25T09:32:39;34.67;;;23.90;;
17727;SDS011;8984;49.268;12.302;2022-09-25T09:35:32;28.63;;;19.10;;
17727;SDS011;8984;49.268;12.302;2022-09-25T09:38:09;26.53;;;18.47;;
17727;SDS011;8984;49.268;12.302;2022-09-25T09:40:49;30.57;;;21.90;;
17727;SDS011;8984;49.268;12.302;2022-09-25T09:43:31;25.30;;;18.07;;
17727;SDS011;8984;49.268;12.302;2022-09-25T09:46:10;27.80;;;21.37;;
17727;SDS011;8984;49.268;12.302;2022-09-25T09:48:46;28.17;;;20.20;;
17727;SDS011;8984;49.268;12.302;2022-09-25T09:51:22;24.77;;;19.13;;
17727;SDS011;8984;49.268;12.302;2022-09-25T09:53:54;24.00;;;17.03;;
17727;SDS011;8984;49.268;12.302;2022-09-25T09:56:26;23.57;;;18.10;;
17727;SDS011;8984;49.268;12.302;2022-09-25T09:58:57;28.33;;;20.70;;
17727;SDS011;8984;49.268;12.302;2022-09-25T10:01:27;26.87;;;20.23;;
17727;SDS011;8984;49.268;12.302;2022-09-25T10:04:00;25.13;;;19.27;;
17727;SDS011;8984;49.268;12.302;2022-09-25T10:06:32;24.93;;;19.07;;
17727;SDS011;8984;49.268;12.302;2022-09-25T10:09:02;27.13;;;20.10;;
17727;SDS011;8984;49.268;12.302;2022-09-25T10:11:30;26.50;;;19.53;;
17727;SDS011;8984;49.268;12.302;2022-09-25T10:14:01;23.33;;;17.67;;
17727;SDS011;8984;49.268;12.302;2022-09-25T10:16:29;25.13;;;19.37;;
17727;SDS011;8984;49.268;12.302;2022-09-25T10:18:58;23.63;;;18.93;;
17727;SDS011;8984;49.268;12.302;2022-09-25T10:21:29;26.93;;;19.63;;
17727;SDS011;8984;49.268;12.302;2022-09-25T10:24:03;23.47;;;18.07;;
17727;SDS011;8984;49.268;12.302;2022-09-25T10:26:31;24.97;;;18.77;;
17727;SDS011;8984;49.268;12.302;2022-09-25T10:29:01;26.67;;;19.97;;
17727;SDS011;8984;49.268;12.302;2022-09-25T10:31:32;24.27;;;19.23;;
17727;SDS011;8984;49.268;12.302;2022-09-25T10:34:02;24.90;;;18.93;;
17727;SDS011;8984;49.268;12.302;2022-09-25T10:36:33;26.87;;;19.13;;
17727;SDS011;8984;49.268;12.302;2022-09-25T10:39:02;24.03;;;19.13;;
17727;SDS011;8984;49.268;12.302;2022-09-25T10:41:39;21.40;;;16.90;;
17727;SDS011;8984;49.268;12.302;2022-09-25T10:44:19;20.67;;;16.43;;
17727;SDS011;8984;49.268;12.302;2022-09-25T10:46:47;24.33;;;18.33;;
17727;SDS011;8984;49.268;12.302;2022-09-25T10:49:32;21.47;;;16.57;;
17727;SDS011;8984;49.268;12.302;2022-09-25T10:52:40;23.17;;;16.97;;
17727;SDS011;8984;49.268;12.302;2022-09-25T10:55:18;25.03;;;19.00;;
17727;SDS011;8984;49.268;12.302;2022-09-25T10:57:51;23.83;;;18.20;;
17727;SDS011;8984;49.268;12.302;2022-09-25T11:00:27;23.80;;;17.67;;
17727;SDS011;8984;49.268;12.302;2022-09-25T11:02:55;23.80;;;17.80;;
17727;SDS011;8984;49.268;12.302;2022-09-25T11:05:26;26.70;;;19.37;;
17727;SDS011;8984;49.268;12.302;2022-09-25T11:07:57;24.20;;;19.10;;
17727;SDS011;8984;49.268;12.302;2022-09-25T11:10:27;25.83;;;18.30;;
17727;SDS011;8984;49.268;12.302;2022-09-25T11:12:56;25.90;;;19.13;;
17727;SDS011;8984;49.268;12.302;2022-09-25T11:15:24;23.77;;;18.57;;
17727;SDS011;8984;49.268;12.302;2022-09-25T11:17:53;27.30;;;20.90;;
17727;SDS011;8984;49.268;12.302;2022-09-25T11:20:23;29.57;;;19.90;;
17727;SDS011;8984;49.268;12.302;2022-09-25T11:22:59;23.73;;;18.97;;
17727;SDS011;8984;49.268;12.302;2022-09-25T11:25:34;24.70;;;19.23;;
17727;SDS011;8984;49.268;12.302;2022-09-25T11:28:09;23.87;;;18.13;;
17727;SDS011;8984;49.268;12.302;2022-09-25T11:30:43;25.67;;;18.93;;
17727;SDS011;8984;49.268;12.302;2022-09-25T11:33:17;26.77;;;19.70;;
17727;SDS011;8984;49.268;12.302;2022-09-25T11:35:53;23.53;;;18.77;;
17727;SDS011;8984;49.268;12.302;2022-09-25T11:38:29;22.87;;;17.57;;
17727;SDS011;8984;49.268;12.302;2022-09-25T11:41:22;22.63;;;18.17;;
17727;SDS011;8984;49.268;12.302;2022-09-25T11:44:06;22.50;;;17.43;;
17727;SDS011;8984;49.268;12.302;2022-09-25T11:46:41;22.17;;;17.43;;
17727;SDS011;8984;49.268;12.302;2022-09-25T11:49:17;23.80;;;18.30;;
17727;SDS011;8984;49.268;12.302;2022-09-25T11:54:50;20.33;;;15.87;;
17727;SDS011;8984;49.268;12.302;2022-09-25T11:57:33;19.90;;;15.57;;
17727;SDS011;8984;49.268;12.302;2022-09-25T12:00:08;24.03;;;18.43;;
17727;SDS011;8984;49.268;12.302;2022-09-25T12:02:48;21.70;;;17.27;;
17727;SDS011;8984;49.268;12.302;2022-09-25T12:05:31;19.70;;;15.13;;
17727;SDS011;8984;49.268;12.302;2022-09-25T12:08:41;18.97;;;14.73;;
17727;SDS011;8984;49.268;12.302;2022-09-25T12:11:20;20.87;;;16.97;;
17727;SDS011;8984;49.268;12.302;2022-09-25T12:13:51;17.53;;;14.70;;
17727;SDS011;8984;49.268;12.302;2022-09-25T12:16:26;17.23;;;13.97;;
17727;SDS011;8984;49.268;12.302;2022-09-25T12:19:02;17.73;;;14.43;;
17727;SDS011;8984;49.268;12.302;2022-09-25T12:21:39;17.20;;;13.93;;
17727;SDS011;8984;49.268;12.302;2022-09-25T12:24:12;22.70;;;16.63;;
17727;SDS011;8984;49.268;12.302;2022-09-25T12:26:50;20.70;;;15.07;;
17727;SDS011;8984;49.268;12.302;2022-09-25T12:29:28;16.00;;;13.30;;
17727;SDS011;8984;49.268;12.302;2022-09-25T12:32:05;19.07;;;15.07;;
17727;SDS011;8984;49.268;12.302;2022-09-25T12:34:46;18.70;;;15.53;;
17727;SDS011;8984;49.268;12.302;2022-09-25T12:37:26;18.27;;;14.23;;
17727;SDS011;8984;49.268;12.302;2022-09-25T12:40:03;19.47;;;14.17;;
17727;SDS011;8984;49.268;12.302;2022-09-25T12:42:42;16.03;;;13.80;;
17727;SDS011;8984;49.268;12.302;2022-09-25T12:45:13;18.33;;;15.67;;
17727;SDS011;8984;49.268;12.302;2022-09-25T12:47:46;18.23;;;15.83;;
17727;SDS011;8984;49.268;12.302;2022-09-25T12:50:20;16.20;;;12.90;;
17727;SDS011;8984;49.268;12.302;2022-09-25T12:52:55;17.70;;;13.47;;
17727;SDS011;8984;49.268;12.302;2022-09-25T12:55:28;16.47;;;12.97;;
17727;SDS011;8984;49.268;12.302;2022-09-25T12:58:04;17.77;;;14.57;;
17727;SDS011;8984;49.268;12.302;2022-09-25T13:00:42;19.97;;;14.57;;
17727;SDS011;8984;49.268;12.302;2022-09-25T13:03:13;18.10;;;14.97;;
17727;SDS011;8984;49.268;12.302;2022-09-25T13:05:48;13.80;;;12.13;;
17727;SDS011;8984;49.268;12.302;2022-09-25T13:08:21;18.43;;;14.97;;
17727;SDS011;8984;49.268;12.302;2022-09-25T13:10:54;16.23;;;13.47;;
17727;SDS011;8984;49.268;12.302;2022-09-25T13:13:26;14.63;;;11.83;;
17727;SDS011;8984;49.268;12.302;2022-09-25T13:15:56;16.77;;;13.90;;
17727;SDS011;8984;49.268;12.302;2022-09-25T13:18:25;14.00;;;11.90;;
17727;SDS011;8984;49.268;12.302;2022-09-25T13:20:53;15.47;;;13.60;;
17727;SDS011;8984;49.268;12.302;2022-09-25T13:23:28;14.25;;;12.73;;
17727;SDS011;8984;49.268;12.302;2022-09-25T13:25:59;16.08;;;12.93;;
17727;SDS011;8984;49.268;12.302;2022-09-25T13:28:37;15.70;;;13.43;;
17727;SDS011;8984;49.268;12.302;2022-09-25T13:31:13;16.10;;;12.20;;
17727;SDS011;8984;49.268;12.302;2022-09-25T13:33:47;14.02;;;10.93;;
17727;SDS011;8984;49.268;12.302;2022-09-25T13:36:30;17.07;;;12.53;;
17727;SDS011;8984;49.268;12.302;2022-09-25T13:39:00;11.70;;;10.00;;
17727;SDS011;8984;49.268;12.302;2022-09-25T13:41:51;11.27;;;9.60;;
17727;SDS011;8984;49.268;12.302;2022-09-25T13:50:43;10.13;;;8.85;;
17727;SDS011;8984;49.268;12.302;2022-09-25T13:53:22;10.45;;;7.80;;
17727;SDS011;8984;49.268;12.302;2022-09-25T13:56:12;9.85;;;7.72;;
17727;SDS011;8984;49.268;12.302;2022-09-25T13:59:11;8.18;;;7.28;;
17727;SDS011;8984;49.268;12.302;2022-09-25T14:01:46;8.50;;;7.13;;
17727;SDS011;8984;49.268;12.302;2022-09-25T14:04:19;8.32;;;6.72;;
17727;SDS011;8984;49.268;12.302;2022-09-25T14:06:53;8.82;;;6.50;;
17727;SDS011;8984;49.268;12.302;2022-09-25T14:09:28;7.93;;;6.75;;
17727;SDS011;8984;49.268;12.302;2022-09-25T14:12:00;7.60;;;6.53;;
17727;SDS011;8984;49.268;12.302;2022-09-25T14:14:35;7.50;;;6.78;;
17727;SDS011;8984;49.268;12.302;2022-09-25T14:17:09;9.67;;;8.37;;
17727;SDS011;8984;49.268;12.302;2022-09-25T14:19:42;9.43;;;7.63;;
17727;SDS011;8984;49.268;12.302;2022-09-25T14:22:15;9.87;;;8.13;;
17727;SDS011;8984;49.268;12.302;2022-09-25T14:24:45;10.60;;;8.20;;
17727;SDS011;8984;49.268;12.302;2022-09-25T14:27:15;9.13;;;8.23;;
17727;SDS011;8984;49.268;12.302;2022-09-25T14:29:46;15.27;;;13.30;;
17727;SDS011;8984;49.268;12.302;2022-09-25T14:32:15;12.33;;;11.03;;
17727;SDS011;8984;49.268;12.302;2022-09-25T14:34:58;10.63;;;9.03;;
17727;SDS011;8984;49.268;12.302;2022-09-25T14:37:50;10.23;;;9.07;;
17727;SDS011;8984;49.268;12.302;2022-09-25T14:40:39;8.40;;;7.50;;
17727;SDS011;8984;49.268;12.302;2022-09-25T14:43:19;8.27;;;7.47;;
17727;SDS011;8984;49.268;12.302;2022-09-25T14:46:02;7.93;;;7.10;;
17727;SDS011;8984;49.268;12.302;2022-09-25T14:48:37;10.00;;;8.07;;
17727;SDS011;8984;49.268;12.302;2022-09-25T14:51:11;12.17;;;7.97;;
17727;SDS011;8984;49.268;12.302;2022-09-25T14:53:47;8.37;;;7.47;;
17727;SDS011;8984;49.268;12.302;2022-09-25T14:56:18;9.60;;;8.43;;
17727;SDS011;8984;49.268;12.302;2022-09-25T14:58:47;9.07;;;7.50;;
17727;SDS011;8984;49.268;12.302;2022-09-25T15:01:17;10.90;;;7.90;;